Terminal Aerodrome Forecast
Issued by NWS

Home | Current Version | Previous Version | Text Only | Print | Product List | Glossary On
Versions: 1 2 3 4 5 6 7 8 9 10 11 12 13 14 15
000
FTUS41 KBTV 171733
TAFPBG
TAF
KPBG 171733Z 1718/1818 31013G20KT P6SM FEW030
     FM171900 33012G20KT P6SM SKC
     FM172200 30008KT P6SM SKC
     FM180000 28004KT P6SM SKC
     FM181200 15004KT P6SM BKN130
     FM181700 14008G18KT P6SM BKN110=

USA.gov is the U.S. government's official web portal to all federal, state and local government web resources and services.